createdAt,value
2019-02-06T00:01:23.331Z,18.47
2019-02-06T00:03:54.139Z,17.63
2019-02-06T00:06:25.023Z,17.43
2019-02-06T00:08:56.995Z,17.70
2019-02-06T00:11:27.706Z,18.80
2019-02-06T00:13:58.355Z,16.47
2019-02-06T00:16:29.164Z,17.67
2019-02-06T00:19:00.085Z,17.17
2019-02-06T00:21:30.845Z,17.23
2019-02-06T00:24:01.799Z,17.83
2019-02-06T00:26:34.883Z,18.20
2019-02-06T00:29:05.919Z,17.83
2019-02-06T00:31:38.753Z,17.63
2019-02-06T00:34:09.515Z,17.00
2019-02-06T00:36:41.286Z,18.17
2019-02-06T00:39:12.707Z,17.47
2019-02-06T00:41:43.378Z,16.50
2019-02-06T00:44:14.119Z,17.43
2019-02-06T00:46:44.765Z,15.27
2019-02-06T00:49:15.843Z,17.37
2019-02-06T00:51:47.659Z,15.30
2019-02-06T00:54:18.855Z,16.70
2019-02-06T00:56:49.705Z,16.03
2019-02-06T00:59:21.147Z,16.27
2019-02-06T01:01:52.359Z,17.03
2019-02-06T01:04:23.078Z,17.43
2019-02-06T01:06:53.873Z,16.73
2019-02-06T01:09:24.543Z,15.83
2019-02-06T01:11:55.259Z,16.53
2019-02-06T01:14:25.903Z,16.23
2019-02-06T01:16:56.579Z,17.20
2019-02-06T01:19:27.338Z,16.70
2019-02-06T01:21:57.984Z,17.50
2019-02-06T01:24:28.703Z,17.13
2019-02-06T01:26:59.395Z,17.53
2019-02-06T01:29:30.649Z,16.03
2019-02-06T01:32:01.327Z,16.97
2019-02-06T01:34:32.111Z,16.57
2019-02-06T01:37:02.757Z,16.63
2019-02-06T01:39:33.476Z,15.80
2019-02-06T01:42:04.138Z,16.33
2019-02-06T01:44:35.049Z,17.47
2019-02-06T01:47:05.674Z,16.60
2019-02-06T01:49:36.365Z,15.93
2019-02-06T01:52:07.003Z,16.90
2019-02-06T01:54:38.640Z,16.67
2019-02-06T01:57:09.598Z,15.47
2019-02-06T01:59:40.313Z,16.10
2019-02-06T02:02:10.995Z,15.70
2019-02-06T02:04:41.689Z,16.17
2019-02-06T02:07:12.419Z,16.07
2019-02-06T02:09:43.710Z,16.23
2019-02-06T02:12:14.684Z,16.13
2019-02-06T02:14:45.334Z,15.37
2019-02-06T02:17:15.977Z,16.50
2019-02-06T02:19:46.624Z,16.50
2019-02-06T02:22:17.267Z,15.23
2019-02-06T02:24:49.040Z,16.07
2019-02-06T02:27:19.692Z,15.33
2019-02-06T02:29:50.341Z,15.70
2019-02-06T02:32:21.862Z,14.13
2019-02-06T02:34:52.553Z,14.50
2019-02-06T02:37:23.975Z,14.13
2019-02-06T02:39:54.858Z,15.33
2019-02-06T02:42:25.541Z,15.60
2019-02-06T02:44:57.025Z,14.53
2019-02-06T02:47:27.673Z,14.60
2019-02-06T02:49:58.270Z,14.17
2019-02-06T02:52:29.159Z,14.33
2019-02-06T02:54:59.861Z,15.03
2019-02-06T02:57:31.091Z,15.20
2019-02-06T03:00:01.810Z,14.43
2019-02-06T03:02:58.015Z,14.53
2019-02-06T03:05:31.772Z,15.50
2019-02-06T03:08:02.504Z,14.23
2019-02-06T03:10:33.578Z,13.10
2019-02-06T03:13:04.791Z,14.07
2019-02-06T03:15:36.151Z,14.40
2019-02-06T03:18:06.912Z,14.10
2019-02-06T03:20:37.590Z,14.67
2019-02-06T03:23:08.233Z,14.73
2019-02-06T03:25:38.914Z,14.30
2019-02-06T03:28:09.568Z,13.77
2019-02-06T03:30:41.711Z,14.40
2019-02-06T03:33:12.426Z,14.10
2019-02-06T03:35:43.389Z,14.70
2019-02-06T03:38:14.019Z,14.93
2019-02-06T03:40:44.891Z,14.20
2019-02-06T03:43:15.797Z,13.60
2019-02-06T03:45:47.468Z,15.30
2019-02-06T03:48:18.146Z,13.53
2019-02-06T03:50:48.851Z,13.63
2019-02-06T03:53:19.446Z,14.60
2019-02-06T03:55:50.071Z,14.60
2019-02-06T03:58:20.810Z,13.07
2019-02-06T04:00:51.952Z,14.03
2019-02-06T04:03:22.746Z,15.30
2019-02-06T04:05:53.371Z,14.40
2019-02-06T04:08:24.329Z,14.10
2019-02-06T04:10:54.926Z,14.33
2019-02-06T04:13:25.558Z,13.67
2019-02-06T04:15:56.190Z,14.43
2019-02-06T04:18:26.817Z,14.47
2019-02-06T04:20:57.521Z,14.23
2019-02-06T04:23:28.262Z,14.23
2019-02-06T04:25:58.919Z,14.20
2019-02-06T04:28:29.667Z,13.50
2019-02-06T04:31:00.310Z,14.33
2019-02-06T04:33:32.201Z,12.67
2019-02-06T04:36:02.881Z,14.33
2019-02-06T04:38:33.556Z,19.67
2019-02-06T04:41:04.232Z,29.03
2019-02-06T04:43:35.155Z,18.83
2019-02-06T04:46:06.075Z,85.40
2019-02-06T04:48:37.647Z,124.40
2019-02-06T04:51:08.342Z,114.83
2019-02-06T04:53:39.764Z,147.90
2019-02-06T04:56:10.444Z,449.00
2019-02-06T04:58:41.801Z,145.63
2019-02-06T05:01:12.559Z,127.17
2019-02-06T05:03:43.955Z,215.13
2019-02-06T05:06:14.709Z,77.73
2019-02-06T05:08:45.357Z,59.73
2019-02-06T05:11:16.352Z,58.50
2019-02-06T05:13:47.000Z,50.03
2019-02-06T05:16:17.840Z,102.00
2019-02-06T05:18:49.469Z,141.37
2019-02-06T05:21:20.140Z,145.83
2019-02-06T05:23:50.788Z,143.20
2019-02-06T05:26:21.884Z,123.73
2019-02-06T05:28:52.706Z,90.47
2019-02-06T05:31:23.427Z,99.67
2019-02-06T05:33:54.414Z,93.90
2019-02-06T05:36:25.060Z,55.00
2019-02-06T05:38:55.747Z,48.70
2019-02-06T05:41:26.348Z,54.57
2019-02-06T05:43:57.403Z,94.03
2019-02-06T05:46:28.053Z,49.10
2019-02-06T05:48:58.861Z,183.17
2019-02-06T05:51:29.571Z,78.13
2019-02-06T05:54:00.239Z,52.30
2019-02-06T05:56:30.919Z,60.40
2019-02-06T05:59:01.553Z,65.47
2019-02-06T06:01:32.237Z,44.97
2019-02-06T06:04:02.873Z,69.00
2019-02-06T06:06:33.538Z,45.07
2019-02-06T06:09:05.791Z,47.57
2019-02-06T06:11:37.639Z,51.10
2019-02-06T06:14:09.189Z,45.63
2019-02-06T06:16:40.039Z,36.37
2019-02-06T06:19:10.671Z,25.40
2019-02-06T06:21:42.986Z,27.63
2019-02-06T06:24:13.650Z,31.03
2019-02-06T06:26:44.318Z,25.67
2019-02-06T06:29:14.962Z,25.93
2019-02-06T06:31:45.637Z,67.00
2019-02-06T06:34:16.300Z,46.20
2019-02-06T06:36:47.894Z,61.50
2019-02-06T06:39:19.025Z,115.60
2019-02-06T06:41:49.719Z,102.77
2019-02-06T06:44:20.383Z,128.83
2019-02-06T06:46:51.040Z,74.53
2019-02-06T06:49:21.721Z,66.50
2019-02-06T06:51:52.697Z,91.57
2019-02-06T06:54:23.402Z,106.20
2019-02-06T06:56:54.033Z,84.80
2019-02-06T06:59:24.727Z,66.37
2019-02-06T07:01:55.383Z,91.10
2019-02-06T07:04:26.062Z,64.07
2019-02-06T07:06:57.071Z,46.57
2019-02-06T07:09:27.721Z,34.90
2019-02-06T07:11:58.416Z,42.10
2019-02-06T07:14:29.047Z,39.67
2019-02-06T07:16:59.704Z,33.00
2019-02-06T07:19:30.450Z,26.13
2019-02-06T07:22:01.202Z,23.87
2019-02-06T07:24:31.929Z,25.30
2019-02-06T07:27:02.604Z,25.33
2019-02-06T07:29:33.262Z,29.63
2019-02-06T07:32:03.937Z,29.83
2019-02-06T07:34:34.983Z,24.63
2019-02-06T07:37:05.702Z,21.83
2019-02-06T07:39:36.394Z,22.63
2019-02-06T07:42:07.040Z,23.50
2019-02-06T07:44:37.674Z,22.27
2019-02-06T07:47:08.400Z,21.70
2019-02-06T07:49:40.004Z,20.93
2019-02-06T07:52:10.623Z,20.53
2019-02-06T07:54:43.604Z,18.40
2019-02-06T07:57:14.252Z,20.30
2019-02-06T07:59:45.155Z,17.90
2019-02-06T08:02:15.827Z,19.57
2019-02-06T08:04:46.453Z,19.17
2019-02-06T08:07:17.149Z,19.27
2019-02-06T08:09:48.262Z,19.37
2019-02-06T08:12:20.360Z,18.97
2019-02-06T08:14:51.373Z,17.83
2019-02-06T08:17:23.015Z,20.10
2019-02-06T08:19:53.692Z,18.87
2019-02-06T08:22:24.438Z,17.60
2019-02-06T08:24:57.665Z,17.90
2019-02-06T08:27:28.909Z,17.60
2019-02-06T08:29:59.734Z,17.43
2019-02-06T08:32:30.430Z,16.33
2019-02-06T08:35:01.208Z,16.53
2019-02-06T08:37:31.890Z,16.60
2019-02-06T08:40:02.639Z,17.97
2019-02-06T08:42:33.310Z,16.77
2019-02-06T08:45:04.205Z,17.60
2019-02-06T08:47:34.913Z,16.57
2019-02-06T08:50:07.726Z,15.97
2019-02-06T08:52:38.539Z,16.10
2019-02-06T08:55:13.010Z,16.27
2019-02-06T08:57:44.996Z,16.80
2019-02-06T09:00:21.098Z,17.70
2019-02-06T09:02:51.744Z,16.00
2019-02-06T09:05:22.525Z,16.17
2019-02-06T09:07:53.283Z,16.07
2019-02-06T09:10:25.444Z,16.53
2019-02-06T09:12:57.396Z,16.07
2019-02-06T09:15:30.161Z,16.43
2019-02-06T09:18:02.072Z,17.23
2019-02-06T09:20:32.941Z,17.13
2019-02-06T09:23:03.851Z,17.30
2019-02-06T09:25:34.510Z,17.00
2019-02-06T09:28:05.157Z,17.13
2019-02-06T09:30:36.478Z,15.57
2019-02-06T09:33:07.538Z,16.27
2019-02-06T09:35:38.241Z,14.77
2019-02-06T09:38:08.899Z,14.83
2019-02-06T09:40:39.563Z,15.27
2019-02-06T09:43:10.231Z,14.73
2019-02-06T09:45:42.537Z,14.47
2019-02-06T09:48:13.319Z,15.63
2019-02-06T09:50:43.996Z,15.10
2019-02-06T09:53:14.679Z,12.93
2019-02-06T09:55:46.047Z,14.77
2019-02-06T09:58:16.958Z,14.03
2019-02-06T10:00:49.821Z,14.23
2019-02-06T10:03:20.533Z,12.93
2019-02-06T10:05:51.358Z,13.53
2019-02-06T10:08:22.045Z,12.23
2019-02-06T10:10:52.707Z,12.17
2019-02-06T10:13:23.289Z,11.57
2019-02-06T10:15:54.272Z,12.50
2019-02-06T10:18:25.028Z,11.47
2019-02-06T10:20:55.690Z,11.83
2019-02-06T10:23:26.433Z,11.73
2019-02-06T10:25:57.370Z,11.43
2019-02-06T10:28:28.786Z,11.63
2019-02-06T10:30:59.425Z,11.37
2019-02-06T10:33:30.072Z,11.27
2019-02-06T10:36:00.749Z,12.03
2019-02-06T10:38:31.423Z,10.90
2019-02-06T10:41:04.804Z,10.27
2019-02-06T10:43:35.995Z,10.90
2019-02-06T10:46:07.516Z,11.80
2019-02-06T10:48:38.996Z,11.63
2019-02-06T10:51:10.421Z,11.60
2019-02-06T10:53:42.409Z,10.47
2019-02-06T10:56:13.770Z,11.77
2019-02-06T10:58:44.943Z,10.70
2019-02-06T11:01:16.312Z,11.13
2019-02-06T11:03:47.955Z,11.10
2019-02-06T11:06:18.997Z,11.77
2019-02-06T11:08:51.531Z,11.03
2019-02-06T11:11:23.616Z,12.00
2019-02-06T11:13:55.509Z,11.23
2019-02-06T11:16:26.415Z,11.37
2019-02-06T11:18:57.473Z,11.97
2019-02-06T11:21:28.119Z,12.40
2019-02-06T11:23:58.832Z,11.93
2019-02-06T11:26:29.473Z,11.40
2019-02-06T11:29:00.148Z,22.07
2019-02-06T11:31:30.810Z,12.13
2019-02-06T11:34:01.783Z,12.07
2019-02-06T11:36:32.500Z,11.43
2019-02-06T11:39:05.367Z,11.17
2019-02-06T11:41:36.027Z,11.80
2019-02-06T11:44:06.726Z,11.90
2019-02-06T11:46:37.914Z,11.00
2019-02-06T11:49:09.131Z,10.87
2019-02-06T11:51:40.540Z,11.20
2019-02-06T11:54:11.211Z,9.80
2019-02-06T11:56:41.882Z,10.43
2019-02-06T11:59:12.571Z,9.90
2019-02-06T12:01:47.863Z,10.53
2019-02-06T12:04:18.531Z,10.20
2019-02-06T12:06:50.407Z,9.30
2019-02-06T12:09:21.333Z,9.57
2019-02-06T12:11:52.124Z,10.10
2019-02-06T12:14:22.760Z,8.57
2019-02-06T12:16:54.885Z,8.90
2019-02-06T12:19:25.518Z,8.87
2019-02-06T12:21:56.916Z,9.63
2019-02-06T12:24:27.590Z,8.63
2019-02-06T12:26:58.837Z,8.20
2019-02-06T12:29:29.488Z,8.30
2019-02-06T12:32:00.210Z,8.13
2019-02-06T12:34:30.918Z,7.67
2019-02-06T12:37:01.602Z,8.17
2019-02-06T12:39:32.238Z,7.77
2019-02-06T12:42:02.936Z,7.60
2019-02-06T12:44:33.600Z,6.87
2019-02-06T12:47:05.692Z,7.60
2019-02-06T12:49:36.720Z,7.87
2019-02-06T12:52:08.341Z,8.83
2019-02-06T12:54:39.611Z,7.87
2019-02-06T12:57:11.005Z,8.13
2019-02-06T12:59:42.190Z,7.90
2019-02-06T13:02:13.532Z,6.87
2019-02-06T13:04:44.244Z,6.93
2019-02-06T13:07:15.065Z,7.10
2019-02-06T13:09:45.910Z,7.07
2019-02-06T13:12:16.776Z,7.03
2019-02-06T13:14:47.684Z,6.40
2019-02-06T13:17:18.728Z,7.20
2019-02-06T13:19:49.862Z,7.10
2019-02-06T13:22:21.716Z,7.83
2019-02-06T13:24:53.648Z,6.37
2019-02-06T13:27:25.916Z,6.70
2019-02-06T13:30:00.199Z,6.70
2019-02-06T13:32:30.979Z,7.27
2019-02-06T13:35:02.322Z,7.17
2019-02-06T13:37:33.302Z,6.80
2019-02-06T13:40:04.239Z,6.67
2019-02-06T13:42:35.344Z,6.73
2019-02-06T13:45:10.455Z,7.27
2019-02-06T13:47:41.600Z,7.77
2019-02-06T13:50:22.170Z,7.60
2019-02-06T13:52:47.719Z,7.30
2019-02-06T13:55:19.544Z,8.27
2019-02-06T13:57:50.779Z,7.73
2019-02-06T14:00:27.977Z,7.27
2019-02-06T14:02:59.199Z,7.07
2019-02-06T14:05:31.844Z,7.10
2019-02-06T14:08:06.710Z,6.50
2019-02-06T14:10:37.565Z,6.77
2019-02-06T14:13:08.491Z,6.40
2019-02-06T14:15:42.716Z,6.40
2019-02-06T14:18:13.539Z,6.30
2019-02-06T14:20:45.110Z,6.50
2019-02-06T14:23:40.908Z,5.83
2019-02-06T14:26:48.261Z,5.73
2019-02-06T14:30:22.303Z,6.13
2019-02-06T14:33:28.685Z,6.00
2019-02-06T14:37:02.934Z,6.23
2019-02-06T14:40:14.298Z,6.20
2019-02-06T14:43:45.304Z,7.33
2019-02-06T14:46:52.820Z,7.77
2019-02-06T14:50:05.610Z,7.80
2019-02-06T14:53:48.711Z,7.87
2019-02-06T14:57:07.976Z,7.73
2019-02-06T15:00:07.435Z,8.03
2019-02-06T15:03:35.269Z,8.83
2019-02-06T15:06:43.983Z,8.70
2019-02-06T15:10:10.051Z,9.20
2019-02-06T15:13:28.860Z,8.97
2019-02-06T15:17:04.977Z,9.47
2019-02-06T15:20:16.641Z,9.70
2019-02-06T15:23:12.602Z,10.50
2019-02-06T15:26:16.725Z,10.70
2019-02-06T15:29:42.510Z,10.90
2019-02-06T15:32:53.359Z,10.97
2019-02-06T15:35:51.221Z,10.73
2019-02-06T15:39:17.185Z,10.53
2019-02-06T15:42:48.010Z,11.20
2019-02-06T15:46:02.497Z,10.67
2019-02-06T15:49:20.792Z,9.77
2019-02-06T15:52:36.844Z,11.13
2019-02-06T15:56:24.802Z,11.53
2019-02-06T15:59:47.060Z,11.80
2019-02-06T16:03:17.770Z,12.83
2019-02-06T16:06:25.692Z,13.97
2019-02-06T16:09:43.138Z,13.77
2019-02-06T16:13:07.186Z,13.40
2019-02-06T16:16:50.243Z,13.23
2019-02-06T16:19:49.630Z,13.90
2019-02-06T16:23:09.640Z,13.57
2019-02-06T16:26:21.788Z,14.53
2019-02-06T16:30:08.173Z,14.67
2019-02-06T16:33:37.331Z,13.60
2019-02-06T16:37:23.455Z,13.23
2019-02-06T16:40:43.718Z,14.03
2019-02-06T16:44:03.241Z,13.53
2019-02-06T16:47:54.373Z,13.83
2019-02-06T16:51:30.247Z,14.20
2019-02-06T16:54:43.752Z,13.73
2019-02-06T16:57:45.853Z,14.03
2019-02-06T17:01:17.943Z,12.67
2019-02-06T17:04:51.759Z,13.53
2019-02-06T17:08:04.767Z,13.20
2019-02-06T17:11:13.128Z,13.97
2019-02-06T17:14:19.081Z,14.77
2019-02-06T17:17:14.324Z,13.97
2019-02-06T17:20:59.082Z,13.93
2019-02-06T17:24:14.495Z,13.57
2019-02-06T17:27:09.242Z,14.03
2019-02-06T17:30:34.927Z,13.90
2019-02-06T17:33:56.602Z,12.47
2019-02-06T17:37:33.248Z,12.80
2019-02-06T17:40:56.977Z,13.00
2019-02-06T17:44:31.059Z,12.60
2019-02-06T17:47:48.874Z,12.67
2019-02-06T17:51:17.839Z,12.83
2019-02-06T17:54:24.017Z,12.10
2019-02-06T17:56:54.823Z,12.30
2019-02-06T17:59:36.351Z,12.30
2019-02-06T18:02:07.576Z,12.33
2019-02-06T18:04:45.100Z,11.90
2019-02-06T18:07:27.801Z,12.20
2019-02-06T18:10:07.358Z,12.27
2019-02-06T18:12:38.943Z,12.40
2019-02-06T18:15:10.561Z,13.07
2019-02-06T18:17:52.066Z,11.47
2019-02-06T18:20:31.808Z,11.53
2019-02-06T18:23:15.126Z,12.17
2019-02-06T18:25:58.123Z,17.93
2019-02-06T18:28:36.812Z,14.57
2019-02-06T18:31:14.480Z,13.27
2019-02-06T18:33:49.510Z,13.93
2019-02-06T18:36:21.205Z,11.87
2019-02-06T18:38:53.883Z,11.57
2019-02-06T18:41:24.559Z,9.90
2019-02-06T18:43:55.743Z,11.73
2019-02-06T18:46:26.525Z,80.60
2019-02-06T18:48:57.220Z,113.33
2019-02-06T18:51:28.112Z,73.87
2019-02-06T18:54:02.742Z,59.73
2019-02-06T18:56:33.570Z,54.20
2019-02-06T18:59:06.506Z,50.30
2019-02-06T19:01:39.097Z,35.93
2019-02-06T19:04:16.995Z,99.60
2019-02-06T19:06:48.397Z,88.13
2019-02-06T19:09:20.460Z,78.97
2019-02-06T19:11:51.267Z,38.67
2019-02-06T19:14:22.863Z,32.67
2019-02-06T19:16:53.580Z,16.97
2019-02-06T19:19:25.681Z,15.37
2019-02-06T19:21:56.634Z,15.47
2019-02-06T19:24:31.311Z,14.57
2019-02-06T19:27:02.609Z,19.10
2019-02-06T19:29:34.330Z,10.80
2019-02-06T19:32:05.719Z,18.77
2019-02-06T19:34:37.258Z,11.33
2019-02-06T19:37:09.116Z,11.77
2019-02-06T19:39:40.768Z,10.50
2019-02-06T19:42:12.423Z,10.47
2019-02-06T19:44:43.698Z,11.20
2019-02-06T19:47:14.424Z,14.97
2019-02-06T19:49:46.545Z,15.30
2019-02-06T19:52:17.786Z,12.80
2019-02-06T19:54:48.990Z,9.93
2019-02-06T19:57:21.372Z,9.30
2019-02-06T19:59:52.833Z,8.00
2019-02-06T20:02:24.235Z,7.67
2019-02-06T20:04:55.339Z,13.93
2019-02-06T20:07:26.917Z,9.90
2019-02-06T20:09:58.067Z,66.47
2019-02-06T20:12:29.553Z,72.53
2019-02-06T20:15:00.379Z,89.87
2019-02-06T20:17:31.154Z,40.37
2019-02-06T20:20:01.814Z,33.07
2019-02-06T20:22:32.587Z,56.43
2019-02-06T20:25:03.414Z,15.63
2019-02-06T20:27:34.432Z,38.47
2019-02-06T20:30:07.238Z,37.87
2019-02-06T20:32:38.109Z,42.80
2019-02-06T20:35:11.338Z,40.67
2019-02-06T20:37:42.023Z,33.97
2019-02-06T20:40:17.619Z,16.90
2019-02-06T20:42:48.900Z,29.10
2019-02-06T20:45:28.023Z,21.50
2019-02-06T20:47:59.479Z,16.73
2019-02-06T20:50:33.423Z,13.20
2019-02-06T20:53:05.590Z,19.07
2019-02-06T20:55:37.120Z,14.13
2019-02-06T20:58:08.332Z,9.03
2019-02-06T21:00:42.652Z,9.80
2019-02-06T21:03:14.597Z,8.60
2019-02-06T21:05:46.282Z,13.23
2019-02-06T21:08:17.658Z,13.87
2019-02-06T21:10:49.464Z,8.03
2019-02-06T21:13:20.615Z,9.47
2019-02-06T21:15:53.288Z,10.37
2019-02-06T21:18:28.774Z,10.47
2019-02-06T21:21:00.308Z,9.00
2019-02-06T21:23:34.398Z,7.57
2019-02-06T21:26:06.156Z,8.33
2019-02-06T21:28:38.690Z,8.57
2019-02-06T21:31:09.456Z,8.70
2019-02-06T21:33:47.930Z,9.07
2019-02-06T21:36:18.942Z,8.40
2019-02-06T21:38:52.702Z,6.97
2019-02-06T21:41:24.846Z,8.03
2019-02-06T21:43:56.345Z,8.00
2019-02-06T21:46:28.382Z,7.97
2019-02-06T21:48:59.471Z,7.77
2019-02-06T21:51:31.651Z,9.17
2019-02-06T21:54:04.603Z,7.57
2019-02-06T21:56:36.768Z,7.47
2019-02-06T21:59:08.109Z,8.03
2019-02-06T22:01:39.409Z,10.30
2019-02-06T22:04:10.706Z,9.27
2019-02-06T22:06:47.021Z,9.10
2019-02-06T22:09:21.011Z,7.23
2019-02-06T22:11:53.163Z,8.47
2019-02-06T22:14:28.558Z,8.40
2019-02-06T22:17:00.668Z,8.50
2019-02-06T22:19:35.328Z,8.00
2019-02-06T22:22:07.094Z,7.97
2019-02-06T22:24:38.584Z,7.77
2019-02-06T22:27:10.171Z,7.83
2019-02-06T22:29:42.184Z,7.53
2019-02-06T22:32:13.546Z,7.43
2019-02-06T22:34:45.233Z,8.17
2019-02-06T22:37:16.561Z,7.77
2019-02-06T22:39:47.738Z,8.20
2019-02-06T22:42:19.020Z,7.70
2019-02-06T22:44:50.234Z,7.53
2019-02-06T22:47:21.120Z,7.97
2019-02-06T22:49:52.569Z,7.43
2019-02-06T22:52:24.242Z,7.20
2019-02-06T22:54:56.345Z,7.70
2019-02-06T22:57:27.572Z,7.57
2019-02-06T22:59:58.708Z,8.80
2019-02-06T23:02:30.257Z,8.23
2019-02-06T23:05:01.438Z,8.67
2019-02-06T23:07:34.357Z,7.73
2019-02-06T23:10:07.142Z,8.23
2019-02-06T23:12:38.762Z,7.50
2019-02-06T23:15:10.203Z,8.50
2019-02-06T23:17:40.915Z,7.93
2019-02-06T23:20:12.779Z,7.37
2019-02-06T23:22:43.593Z,7.90
2019-02-06T23:25:14.243Z,7.13
2019-02-06T23:27:45.721Z,7.23
2019-02-06T23:30:17.155Z,8.30
2019-02-06T23:32:48.824Z,7.10
2019-02-06T23:35:20.060Z,7.13
2019-02-06T23:37:51.383Z,7.20
2019-02-06T23:40:22.866Z,7.93
2019-02-06T23:42:54.495Z,7.87
2019-02-06T23:45:26.113Z,8.50
2019-02-06T23:47:57.262Z,9.33
2019-02-06T23:50:28.487Z,7.90
2019-02-06T23:52:59.812Z,8.83
2019-02-06T23:55:31.077Z,8.10
2019-02-06T23:58:02.854Z,8.83
